createdAt,value
2017-05-07T00:00:13.420Z,2.80
2017-05-07T00:02:42.478Z,2.86
2017-05-07T00:05:10.775Z,3.48
2017-05-07T00:07:39.877Z,2.76
2017-05-07T00:10:08.938Z,3.10
2017-05-07T00:12:38.039Z,3.28
2017-05-07T00:15:06.335Z,2.62
2017-05-07T00:17:35.414Z,3.04
2017-05-07T00:20:03.750Z,3.74
2017-05-07T00:22:32.042Z,2.66
2017-05-07T00:25:00.339Z,3.22
2017-05-07T00:27:28.714Z,2.66
2017-05-07T00:29:57.009Z,4.18
2017-05-07T00:32:26.877Z,3.30
2017-05-07T00:34:55.202Z,4.04
2017-05-07T00:37:25.002Z,3.30
2017-05-07T00:39:54.842Z,5.04
2017-05-07T00:42:23.906Z,2.96
2017-05-07T00:44:52.203Z,3.54
2017-05-07T00:47:20.545Z,4.16
2017-05-07T00:49:48.849Z,4.22
2017-05-07T00:52:17.909Z,3.74
2017-05-07T00:54:46.248Z,3.68
2017-05-07T00:57:15.332Z,3.08
2017-05-07T00:59:44.439Z,3.84
2017-05-07T01:02:13.503Z,3.56
2017-05-07T01:04:41.826Z,4.56
2017-05-07T01:07:10.163Z,4.08
2017-05-07T01:09:39.963Z,3.84
2017-05-07T01:12:08.299Z,2.98
2017-05-07T01:14:37.357Z,5.86
2017-05-07T01:17:05.650Z,4.30
2017-05-07T01:19:34.757Z,5.66
2017-05-07T01:22:03.837Z,4.90
2017-05-07T01:24:32.948Z,4.08
2017-05-07T01:27:02.011Z,4.46
2017-05-07T01:29:30.372Z,6.32
2017-05-07T01:31:58.675Z,7.32
2017-05-07T01:34:27.734Z,5.78
2017-05-07T01:36:56.082Z,5.20
2017-05-07T01:39:25.140Z,6.10
2017-05-07T01:41:53.463Z,11.34
2017-05-07T01:44:21.792Z,8.98
2017-05-07T01:46:50.086Z,10.18
2017-05-07T01:49:19.150Z,8.78
2017-05-07T01:51:47.493Z,10.24
2017-05-07T01:54:15.798Z,9.66
2017-05-07T01:56:44.097Z,12.24
2017-05-07T01:59:12.770Z,8.98
2017-05-07T02:01:41.067Z,10.42
2017-05-07T02:04:09.362Z,14.62
2017-05-07T02:06:38.469Z,9.50
2017-05-07T02:09:06.780Z,12.36
2017-05-07T02:11:35.080Z,11.38
2017-05-07T02:14:03.423Z,14.06
2017-05-07T02:16:31.720Z,12.32
2017-05-07T02:19:00.021Z,14.98
2017-05-07T02:21:28.366Z,16.84
2017-05-07T02:23:56.670Z,17.16
2017-05-07T02:26:24.981Z,19.02
2017-05-07T02:28:54.104Z,20.50
2017-05-07T02:31:22.409Z,19.76
2017-05-07T02:33:50.713Z,21.64
2017-05-07T02:36:19.081Z,15.66
2017-05-07T02:38:47.385Z,16.94
2017-05-07T02:41:16.458Z,18.38
2017-05-07T02:43:44.821Z,18.08
2017-05-07T02:46:13.886Z,20.84
2017-05-07T02:48:43.000Z,25.58
2017-05-07T02:51:11.313Z,17.90
2017-05-07T02:53:39.614Z,24.30
2017-05-07T02:56:07.961Z,20.00
2017-05-07T02:58:36.267Z,21.12
2017-05-07T03:01:04.570Z,23.04
2017-05-07T03:03:32.905Z,20.98
2017-05-07T03:06:01.975Z,21.36
2017-05-07T03:08:30.273Z,20.58
2017-05-07T03:10:59.417Z,20.28
2017-05-07T03:13:27.714Z,23.24
2017-05-07T03:15:56.013Z,22.36
2017-05-07T03:18:24.359Z,21.32
2017-05-07T03:20:53.427Z,25.18
2017-05-07T03:23:21.726Z,23.58
2017-05-07T03:25:50.151Z,22.18
2017-05-07T03:28:18.449Z,22.88
2017-05-07T03:30:47.517Z,25.46
2017-05-07T03:33:15.983Z,22.26
2017-05-07T03:35:45.098Z,23.58
2017-05-07T03:38:13.409Z,23.36
2017-05-07T03:40:41.775Z,29.38
2017-05-07T03:43:10.095Z,23.84
2017-05-07T03:45:38.393Z,32.08
2017-05-07T03:48:06.742Z,34.28
2017-05-07T03:50:35.049Z,28.06
2017-05-07T03:53:03.351Z,33.42
2017-05-07T03:55:32.491Z,29.06
2017-05-07T03:58:00.799Z,29.00
2017-05-07T04:00:29.897Z,33.84
2017-05-07T04:02:58.225Z,30.84
2017-05-07T04:05:26.525Z,36.82
2017-05-07T04:07:54.878Z,33.58
2017-05-07T04:10:23.950Z,29.32
2017-05-07T04:12:53.088Z,35.46
2017-05-07T04:15:21.390Z,37.34
2017-05-07T04:17:50.743Z,40.70
2017-05-07T04:20:20.518Z,36.70
2017-05-07T04:22:48.817Z,33.38
2017-05-07T04:25:17.878Z,35.22
2017-05-07T04:27:46.266Z,39.80
2017-05-07T04:30:14.609Z,40.82
2017-05-07T04:32:42.908Z,37.78
2017-05-07T04:35:11.205Z,35.54
2017-05-07T04:37:40.340Z,37.02
2017-05-07T04:40:09.431Z,38.04
2017-05-07T04:42:37.736Z,35.54
2017-05-07T04:45:06.081Z,41.18
2017-05-07T04:47:34.386Z,41.52
2017-05-07T04:50:02.691Z,41.18
2017-05-07T04:52:31.801Z,38.78
2017-05-07T04:55:00.102Z,40.10
2017-05-07T04:57:28.399Z,37.98
2017-05-07T04:59:56.755Z,46.72
2017-05-07T05:02:25.049Z,42.90
2017-05-07T05:04:53.358Z,45.18
2017-05-07T05:07:21.710Z,48.22
2017-05-07T05:09:50.152Z,39.52
2017-05-07T05:12:19.220Z,40.20
2017-05-07T05:14:49.071Z,46.72
2017-05-07T05:17:17.382Z,38.32
2017-05-07T05:23:23.794Z,33.66
2017-05-07T05:26:10.486Z,35.90
2017-05-07T05:29:07.245Z,42.58
2017-05-07T05:31:53.873Z,32.04
2017-05-07T05:34:22.944Z,36.60
2017-05-07T05:36:51.241Z,35.30
2017-05-07T05:39:20.342Z,39.04
2017-05-07T05:41:49.746Z,32.54
2017-05-07T05:44:18.849Z,35.32
2017-05-07T05:46:47.916Z,32.30
2017-05-07T05:49:16.214Z,29.30
2017-05-07T05:51:44.584Z,34.74
2017-05-07T05:54:13.657Z,31.80
2017-05-07T05:56:41.953Z,29.72
2017-05-07T05:59:11.531Z,30.22
2017-05-07T06:01:40.655Z,29.28
2017-05-07T06:04:09.719Z,28.52
2017-05-07T06:06:38.021Z,22.74
2017-05-07T06:09:06.373Z,29.20
2017-05-07T06:11:34.674Z,26.28
2017-05-07T06:14:03.317Z,24.62
2017-05-07T06:16:31.684Z,26.34
2017-05-07T06:18:59.987Z,24.84
2017-05-07T06:21:28.295Z,25.30
2017-05-07T06:23:56.705Z,28.22
2017-05-07T06:26:25.773Z,26.70
2017-05-07T06:28:54.881Z,26.76
2017-05-07T06:31:23.943Z,24.84
2017-05-07T06:33:53.059Z,22.90
2017-05-07T06:36:22.121Z,23.36
2017-05-07T06:38:50.431Z,20.18
2017-05-07T06:41:18.771Z,23.48
2017-05-07T06:43:47.840Z,18.14
2017-05-07T06:46:16.141Z,22.12
2017-05-07T06:48:44.506Z,17.70
2017-05-07T06:51:13.589Z,19.82
2017-05-07T06:53:41.921Z,18.02
2017-05-07T06:56:10.267Z,23.86
2017-05-07T06:58:38.573Z,20.30
2017-05-07T07:01:06.874Z,22.20
2017-05-07T07:03:35.994Z,19.06
2017-05-07T07:06:04.293Z,16.68
2017-05-07T07:08:32.617Z,16.44
2017-05-07T07:11:00.963Z,16.06
2017-05-07T07:13:29.262Z,21.54
2017-05-07T07:15:57.562Z,17.14
2017-05-07T07:18:26.662Z,20.50
2017-05-07T07:20:55.741Z,15.96
2017-05-07T07:23:24.052Z,13.92
2017-05-07T07:25:52.538Z,16.16
2017-05-07T07:28:20.843Z,17.54
2017-05-07T07:30:49.137Z,16.24
2017-05-07T07:33:17.479Z,15.00
2017-05-07T07:35:45.777Z,16.76
2017-05-07T07:38:14.081Z,15.44
2017-05-07T07:40:42.417Z,17.04
2017-05-07T07:43:10.721Z,17.90
2017-05-07T07:45:39.026Z,15.12
2017-05-07T07:48:08.164Z,14.84
2017-05-07T07:50:36.495Z,13.82
2017-05-07T07:53:04.789Z,14.60
2017-05-07T07:55:33.151Z,13.86
2017-05-07T07:58:01.470Z,13.56
2017-05-07T08:00:29.779Z,15.86
2017-05-07T08:02:58.121Z,15.28
2017-05-07T08:05:26.453Z,13.08
2017-05-07T08:07:54.786Z,14.70
2017-05-07T08:10:23.143Z,16.22
2017-05-07T08:12:51.465Z,12.78
2017-05-07T08:15:19.778Z,14.86
2017-05-07T08:17:48.905Z,14.50
2017-05-07T08:20:17.984Z,11.54
2017-05-07T08:22:47.103Z,15.98
2017-05-07T08:25:15.418Z,14.58
2017-05-07T08:27:43.745Z,11.44
2017-05-07T08:30:12.097Z,12.10
2017-05-07T08:32:40.422Z,14.96
2017-05-07T08:35:08.722Z,11.30
2017-05-07T08:37:37.069Z,10.78
2017-05-07T08:40:05.379Z,14.22
2017-05-07T08:42:33.674Z,11.04
2017-05-07T08:45:02.031Z,11.14
2017-05-07T08:47:30.333Z,8.78
2017-05-07T08:49:58.646Z,10.72
2017-05-07T08:52:26.991Z,9.72
2017-05-07T08:54:55.301Z,11.14
2017-05-07T08:57:23.601Z,8.64
2017-05-07T08:59:51.979Z,9.90
2017-05-07T09:02:20.291Z,8.58
2017-05-07T09:04:48.602Z,8.62
2017-05-07T09:07:16.954Z,9.04
2017-05-07T09:09:46.033Z,10.30
2017-05-07T09:16:07.159Z,9.76
2017-05-07T09:18:36.053Z,8.56
2017-05-07T09:21:05.121Z,8.24
2017-05-07T09:23:34.242Z,7.72
2017-05-07T09:26:02.547Z,8.36
2017-05-07T09:28:30.847Z,8.48
2017-05-07T09:30:59.198Z,7.30
2017-05-07T09:33:28.261Z,6.50
2017-05-07T09:35:56.562Z,5.72
2017-05-07T09:38:24.898Z,6.00
2017-05-07T09:40:53.957Z,7.24
2017-05-07T09:43:22.274Z,7.64
2017-05-07T09:45:51.397Z,7.10
2017-05-07T09:48:19.705Z,9.10
2017-05-07T09:50:48.004Z,5.84
2017-05-07T09:53:16.337Z,6.40
2017-05-07T09:55:44.671Z,7.28
2017-05-07T09:58:13.733Z,7.18
2017-05-07T10:00:42.035Z,6.56
2017-05-07T10:03:11.143Z,6.66
2017-05-07T10:05:40.208Z,8.22
2017-05-07T10:08:08.512Z,7.88
2017-05-07T10:10:37.631Z,9.54
2017-05-07T10:13:05.932Z,7.20
2017-05-07T10:15:34.233Z,8.04
2017-05-07T10:18:02.577Z,8.50
2017-05-07T10:20:30.882Z,7.92
2017-05-07T10:22:59.198Z,9.38
2017-05-07T10:25:28.313Z,11.00
2017-05-07T10:27:56.612Z,9.56
2017-05-07T10:30:24.973Z,9.80
2017-05-07T10:32:53.343Z,10.02
2017-05-07T10:35:21.642Z,9.78
2017-05-07T10:37:49.960Z,7.98
2017-05-07T10:40:18.298Z,9.84
2017-05-07T10:42:46.605Z,9.30
2017-05-07T10:45:14.901Z,7.82
2017-05-07T10:47:43.259Z,9.22
2017-05-07T10:50:11.558Z,12.20
2017-05-07T10:52:39.869Z,13.72
2017-05-07T10:55:09.015Z,10.40
2017-05-07T10:57:37.323Z,10.08
2017-05-07T11:00:06.405Z,10.64
2017-05-07T11:02:35.528Z,8.72
2017-05-07T11:05:03.834Z,8.90
2017-05-07T11:07:32.136Z,10.08
2017-05-07T11:10:00.475Z,7.80
2017-05-07T11:12:28.775Z,9.82
2017-05-07T11:14:57.093Z,12.84
2017-05-07T11:17:26.235Z,9.56
2017-05-07T11:19:55.253Z,9.74
2017-05-07T11:22:23.561Z,25.56
2017-05-07T11:24:51.902Z,10.62
2017-05-07T11:27:20.204Z,9.66
2017-05-07T11:29:48.511Z,9.40
2017-05-07T11:32:16.866Z,10.88
2017-05-07T11:34:45.933Z,8.48
2017-05-07T11:37:14.230Z,9.68
2017-05-07T11:39:42.570Z,8.54
2017-05-07T11:42:10.861Z,9.38
2017-05-07T11:44:39.258Z,8.16
2017-05-07T11:47:07.598Z,7.80
2017-05-07T11:49:35.914Z,9.10
2017-05-07T11:52:04.223Z,10.18
2017-05-07T11:54:33.338Z,8.66
2017-05-07T11:57:01.638Z,8.92
2017-05-07T11:59:29.935Z,8.44
2017-05-07T12:01:59.072Z,8.38
2017-05-07T12:04:28.142Z,9.82
2017-05-07T12:06:56.437Z,8.44
2017-05-07T12:09:25.553Z,7.52
2017-05-07T12:11:54.769Z,7.52
2017-05-07T12:14:23.072Z,8.02
2017-05-07T12:16:51.409Z,9.64
2017-05-07T12:19:19.709Z,11.50
2017-05-07T12:21:48.007Z,10.28
2017-05-07T12:24:16.352Z,12.22
2017-05-07T12:26:44.666Z,10.56
2017-05-07T12:29:12.985Z,14.00
2017-05-07T12:31:42.098Z,10.34
2017-05-07T12:34:10.413Z,11.32
2017-05-07T12:36:38.713Z,13.76
2017-05-07T12:39:08.562Z,11.78
2017-05-07T12:41:37.636Z,13.58
2017-05-07T12:44:06.749Z,11.64
2017-05-07T12:46:35.052Z,11.46
2017-05-07T12:49:03.470Z,13.84
2017-05-07T12:51:33.341Z,8.80
2017-05-07T12:54:01.669Z,10.30
2017-05-07T12:56:30.003Z,10.84
2017-05-07T12:58:58.348Z,9.08
2017-05-07T13:01:26.653Z,10.04
2017-05-07T13:03:55.273Z,10.30
2017-05-07T13:06:23.620Z,12.08
2017-05-07T13:08:51.925Z,12.46
2017-05-07T13:11:20.225Z,13.68
2017-05-07T13:13:49.353Z,12.80
2017-05-07T13:16:17.663Z,11.12
2017-05-07T13:18:45.965Z,15.28
2017-05-07T13:21:14.321Z,56.14
2017-05-07T13:23:42.629Z,15.38
2017-05-07T13:26:10.935Z,56.12
2017-05-07T13:28:39.534Z,20.64
2017-05-07T13:31:07.856Z,44.06
2017-05-07T13:33:36.185Z,21.20
2017-05-07T13:36:04.545Z,77.56
2017-05-07T13:38:33.627Z,74.90
2017-05-07T13:41:02.758Z,21.44
2017-05-07T13:43:31.070Z,19.00
2017-05-07T13:45:59.391Z,58.60
2017-05-07T13:48:27.884Z,14.98
2017-05-07T13:50:56.189Z,16.26
2017-05-07T13:53:24.495Z,16.70
2017-05-07T13:55:52.851Z,66.56
2017-05-07T13:58:21.161Z,15.02
2017-05-07T14:00:49.470Z,15.64
2017-05-07T14:03:17.829Z,18.48
2017-05-07T14:05:46.907Z,17.32
2017-05-07T14:08:15.207Z,16.18
2017-05-07T14:10:44.334Z,17.78
2017-05-07T14:13:18.229Z,20.18
2017-05-07T14:15:46.590Z,15.88
2017-05-07T14:18:14.952Z,15.50
2017-05-07T14:20:43.262Z,16.62
2017-05-07T14:23:11.655Z,17.56
2017-05-07T14:25:39.954Z,27.86
2017-05-07T14:28:09.023Z,16.64
2017-05-07T14:30:37.370Z,22.60
2017-05-07T14:33:06.435Z,17.32
2017-05-07T14:35:34.738Z,38.50
2017-05-07T14:38:03.855Z,15.94
2017-05-07T14:40:32.943Z,18.26
2017-05-07T14:43:01.259Z,17.30
2017-05-07T14:45:30.522Z,19.16
2017-05-07T14:47:59.602Z,49.46
2017-05-07T14:50:28.730Z,16.94
2017-05-07T14:52:57.055Z,24.36
2017-05-07T14:55:26.129Z,24.08
2017-05-07T14:57:54.496Z,24.78
2017-05-07T15:00:22.804Z,19.02
2017-05-07T15:02:51.114Z,16.10
2017-05-07T15:05:20.226Z,21.12
2017-05-07T15:07:49.301Z,37.40
2017-05-07T15:10:18.419Z,33.28
2017-05-07T15:12:47.493Z,29.20
2017-05-07T15:15:16.597Z,29.66
2017-05-07T15:17:45.675Z,25.36
2017-05-07T15:20:14.814Z,23.74
2017-05-07T15:22:43.135Z,20.20
2017-05-07T15:25:11.441Z,21.18
2017-05-07T15:27:40.559Z,20.46
2017-05-07T15:30:09.636Z,19.56
2017-05-07T15:32:38.753Z,21.72
2017-05-07T15:35:07.066Z,18.54
2017-05-07T15:37:35.382Z,18.46
2017-05-07T15:40:04.545Z,16.52
2017-05-07T15:42:32.858Z,20.96
2017-05-07T15:45:01.929Z,33.62
2017-05-07T15:47:31.791Z,16.78
2017-05-07T15:50:00.124Z,19.82
2017-05-07T15:52:28.430Z,19.94
2017-05-07T15:54:57.621Z,17.54
2017-05-07T15:57:26.695Z,17.70
2017-05-07T15:59:55.298Z,16.34
2017-05-07T16:02:24.412Z,13.88
2017-05-07T16:04:53.482Z,17.10
2017-05-07T16:07:22.601Z,14.62
2017-05-07T16:09:51.687Z,26.84
2017-05-07T16:12:20.801Z,17.00
2017-05-07T16:14:49.906Z,20.42
2017-05-07T16:27:13.230Z,29.52
2017-05-07T16:29:59.358Z,39.90
2017-05-07T16:32:34.519Z,49.98
2017-05-07T16:35:03.647Z,41.30
2017-05-07T16:37:31.953Z,39.66
2017-05-07T16:40:00.257Z,41.32
2017-05-07T16:42:28.605Z,37.26
2017-05-07T16:44:56.910Z,34.38
2017-05-07T16:47:25.217Z,54.78
2017-05-07T16:49:54.341Z,38.54
2017-05-07T16:52:22.654Z,59.00
2017-05-07T16:54:51.720Z,32.46
2017-05-07T16:57:20.147Z,44.16
2017-05-07T16:59:48.478Z,38.54
2017-05-07T17:02:16.786Z,40.40
2017-05-07T17:04:45.139Z,43.64
2017-05-07T17:07:19.094Z,40.90
2017-05-07T17:09:47.446Z,45.58
2017-05-07T17:12:16.535Z,62.68
2017-05-07T17:14:44.879Z,49.92
2017-05-07T17:17:13.216Z,57.20
2017-05-07T17:19:43.041Z,54.48
2017-05-07T17:22:11.389Z,53.40
2017-05-07T17:24:39.702Z,71.30
2017-05-07T17:27:08.774Z,71.80
2017-05-07T17:29:37.128Z,65.10
2017-05-07T17:32:05.544Z,56.10
2017-05-07T17:34:33.859Z,115.64
2017-05-07T17:37:02.978Z,60.78
2017-05-07T17:39:31.294Z,56.18
2017-05-07T17:42:00.368Z,56.56
2017-05-07T17:44:28.719Z,48.70
2017-05-07T17:46:57.808Z,51.62
2017-05-07T17:49:26.923Z,46.62
2017-05-07T17:51:55.229Z,46.00
2017-05-07T17:54:23.529Z,46.28
2017-05-07T17:56:51.878Z,35.04
2017-05-07T17:59:20.185Z,42.90
2017-05-07T18:01:48.487Z,35.90
2017-05-07T18:04:17.629Z,41.12
2017-05-07T18:06:45.942Z,39.00
2017-05-07T18:09:14.252Z,37.72
2017-05-07T18:11:43.377Z,43.18
2017-05-07T18:14:11.682Z,41.76
2017-05-07T18:16:41.547Z,41.42
2017-05-07T18:19:10.620Z,43.34
2017-05-07T18:21:39.750Z,43.04
2017-05-07T18:24:08.065Z,48.18
2017-05-07T18:26:36.441Z,37.22
2017-05-07T18:29:04.811Z,38.50
2017-05-07T18:31:33.121Z,40.90
2017-05-07T18:34:02.298Z,41.32
2017-05-07T18:36:30.654Z,35.70
2017-05-07T18:38:58.960Z,43.70
2017-05-07T18:41:27.269Z,45.08
2017-05-07T18:43:55.626Z,40.06
2017-05-07T18:46:23.933Z,33.82
2017-05-07T18:48:53.012Z,37.98
2017-05-07T18:51:21.366Z,46.28
2017-05-07T18:53:50.434Z,42.30
2017-05-07T18:56:18.739Z,46.36
2017-05-07T18:58:47.857Z,37.84
2017-05-07T19:01:16.168Z,41.76
2017-05-07T19:03:45.237Z,38.36
2017-05-07T19:06:14.390Z,34.12
2017-05-07T19:08:42.703Z,37.84
2017-05-07T19:11:11.778Z,39.62
2017-05-07T19:13:40.131Z,37.28
2017-05-07T19:16:08.438Z,40.26
2017-05-07T19:18:36.873Z,39.84
2017-05-07T19:21:05.253Z,37.34
2017-05-07T19:23:33.554Z,29.04
2017-05-07T19:26:02.634Z,39.12
2017-05-07T19:28:30.982Z,34.18
2017-05-07T19:30:59.346Z,34.26
2017-05-07T19:33:28.418Z,36.76
2017-05-07T19:35:56.758Z,36.30
2017-05-07T19:38:25.061Z,31.32
2017-05-07T19:40:53.372Z,37.08
2017-05-07T19:43:22.482Z,38.02
2017-05-07T19:45:51.561Z,39.32
2017-05-07T19:48:20.678Z,43.80
2017-05-07T19:50:48.987Z,41.30
2017-05-07T19:53:17.289Z,37.04
2017-05-07T19:55:45.635Z,37.14
2017-05-07T19:58:13.938Z,33.80
2017-05-07T20:00:42.266Z,37.90
2017-05-07T20:03:11.817Z,33.08
2017-05-07T20:05:40.122Z,38.10
2017-05-07T20:08:08.422Z,39.30
2017-05-07T20:10:37.533Z,37.40
2017-05-07T20:13:05.842Z,40.48
2017-05-07T20:15:34.170Z,40.46
2017-05-07T20:18:03.273Z,33.98
2017-05-07T20:20:31.577Z,39.54
2017-05-07T20:22:59.974Z,39.30
2017-05-07T20:25:28.321Z,35.58
2017-05-07T20:27:56.631Z,36.28
2017-05-07T20:30:25.704Z,37.70
2017-05-07T20:32:54.334Z,31.60
2017-05-07T20:35:22.638Z,34.72
2017-05-07T20:37:51.742Z,34.14
2017-05-07T20:40:20.084Z,28.86
2017-05-07T20:42:48.397Z,32.20
2017-05-07T20:45:16.705Z,31.54
2017-05-07T20:47:45.058Z,35.26
2017-05-07T20:50:13.364Z,34.82
2017-05-07T20:52:41.766Z,35.12
2017-05-07T20:55:10.127Z,32.34
2017-05-07T20:57:38.432Z,32.68
2017-05-07T21:00:06.737Z,35.12
2017-05-07T21:02:35.102Z,31.06
2017-05-07T21:05:04.180Z,32.78
2017-05-07T21:07:32.488Z,29.48
2017-05-07T21:10:01.636Z,33.64
2017-05-07T21:12:30.029Z,30.90
2017-05-07T21:14:58.367Z,35.70
2017-05-07T21:17:26.726Z,36.76
2017-05-07T21:19:55.047Z,35.50
2017-05-07T21:22:24.122Z,30.74
2017-05-07T21:24:53.243Z,33.68
2017-05-07T21:27:21.552Z,37.58
2017-05-07T21:29:50.638Z,29.60
2017-05-07T21:32:19.771Z,35.14
2017-05-07T21:34:48.134Z,33.10
2017-05-07T21:37:16.435Z,33.46
2017-05-07T21:39:44.964Z,32.66
2017-05-07T21:42:14.052Z,39.32
2017-05-07T21:44:42.359Z,33.88
2017-05-07T21:47:11.469Z,29.40
2017-05-07T21:49:39.774Z,37.10
2017-05-07T21:52:08.090Z,35.04
2017-05-07T21:54:36.431Z,38.54
2017-05-07T21:57:04.744Z,35.22
2017-05-07T21:59:33.053Z,32.98
2017-05-07T22:02:01.498Z,33.26
2017-05-07T22:04:29.797Z,32.90
2017-05-07T22:06:58.866Z,38.34
2017-05-07T22:09:27.266Z,36.12
2017-05-07T22:11:56.339Z,31.58
2017-05-07T22:14:24.646Z,30.90
2017-05-07T22:16:53.769Z,35.00
2017-05-07T22:19:22.115Z,34.90
2017-05-07T22:21:51.181Z,29.86
2017-05-07T22:24:21.029Z,26.44
2017-05-07T22:26:50.097Z,30.24
2017-05-07T22:29:18.454Z,33.20
2017-05-07T22:31:47.522Z,36.62
2017-05-07T22:34:15.826Z,33.88
2017-05-07T22:36:44.174Z,33.52
2017-05-07T22:39:12.477Z,36.94
2017-05-07T22:41:40.787Z,37.72
2017-05-07T22:44:09.905Z,33.62
2017-05-07T22:46:38.214Z,35.40
2017-05-07T22:49:06.525Z,33.48
2017-05-07T22:51:36.376Z,34.52
2017-05-07T22:54:05.450Z,31.56
2017-05-07T22:56:34.619Z,34.54
2017-05-07T22:59:02.930Z,30.34
2017-05-07T23:01:32.001Z,31.28
2017-05-07T23:04:00.403Z,28.20
2017-05-07T23:06:29.475Z,33.46
2017-05-07T23:08:57.778Z,31.92
2017-05-07T23:11:26.889Z,28.10
2017-05-07T23:13:55.190Z,34.00
2017-05-07T23:16:24.267Z,38.88
2017-05-07T23:18:53.386Z,31.52
2017-05-07T23:21:21.697Z,29.64
2017-05-07T23:23:51.561Z,30.40
2017-05-07T23:26:19.862Z,34.52
2017-05-07T23:28:48.934Z,31.10
2017-05-07T23:31:17.290Z,27.54
2017-05-07T23:33:46.362Z,31.42
2017-05-07T23:36:14.673Z,33.34
2017-05-07T23:38:43.106Z,30.92
2017-05-07T23:41:11.484Z,32.42
2017-05-07T23:43:39.803Z,29.24
2017-05-07T23:46:08.931Z,25.86
2017-05-07T23:48:37.234Z,27.94
2017-05-07T23:51:05.581Z,31.78
2017-05-07T23:53:33.923Z,31.48
2017-05-07T23:56:02.992Z,23.72
2017-05-07T23:58:32.105Z,28.20
